1987 ED1:ED2 (1987232N07173)


On this page: IBTrACS data - Map and Plots - Positions - Intensities - Original source data

Summary

Start Aug 20
End Aug 28
Basin WP
LMI 35 kt
Sources jtwc_wp
hko
hko
td9636
In WMO? No
Previous storm 1987 DINAH (WP)
Previous in basin 1987 DINAH (WP)
Concurrent storms 1987 CARY (WP)
1987 ARLENE (NA)
1987 JOVA (EP)
1987 BRET (NA)
1987 MISSING (WP)
1987 DINAH (WP)
1987 ED1 (WP)
1987 OKA (EP)
1987 KNUT (EP)
Next in basin Missing
Next storm 1987 OKA (EP)

top of page IBTrACS Data: File Access

top of page HURSAT Data: File Access

Image of storm

top of page Plots:

Map of storm track will not appear if FTP is down
Time series of cyclone Maximum Sustained Wind will not appear if FTP is down
Time series of cyclone Minimum Central Pressure will not appear if FTP is down

top of page Track Data:Position

jtwc_wp hko hko td9636
Date Lat Lon Lat Lon Lat Lon Lat Lon
1987-08-20 06:00:00 7.0 173.0 7.0 173.0
1987-08-20 12:00:00 7.6 170.7 7.6 170.7
1987-08-20 18:00:00 8.2 168.5 8.1 168.7
1987-08-21 00:00:00 8.5 167.0 8.5 167.0
1987-08-21 06:00:00 8.7 165.2 8.6 165.2
1987-08-21 12:00:00 8.8 163.6 9.1 162.8 8.8 163.6
1987-08-21 18:00:00 9.2 162.2 9.6 161.6 9.2 162.1
1987-08-22 00:00:00 9.8 160.8 10.0 160.5 9.8 160.8
1987-08-22 06:00:00 10.3 159.7 10.4 159.6 10.3 159.7
1987-08-22 12:00:00 10.8 158.7 10.8 158.8 10.8 158.7
1987-08-22 18:00:00 11.3 157.7 11.4 157.6 11.5 157.8
1987-08-23 00:00:00 12.2 157.1 12.2 156.5 12.2 157.1
1987-08-23 06:00:00 12.9 156.7 12.8 156.7
1987-08-23 12:00:00 13.3 156.4 13.3 156.4
1987-08-23 18:00:00 13.6 156.2 13.7 156.2
1987-08-24 00:00:00 13.9 155.9 13.9 155.9
1987-08-24 06:00:00 14.1 155.4 14.1 155.4
1987-08-24 12:00:00 14.2 154.7 13.7 154.4 14.2 154.7
1987-08-24 18:00:00 14.3 153.8 14.1 153.9 14.4 153.8
1987-08-25 00:00:00 14.7 152.8 14.4 153.3 14.7 152.8
1987-08-25 06:00:00 15.1 151.6 14.7 152.7 15.1 151.5
1987-08-25 12:00:00 15.3 150.5 15.0 152.0 15.3 150.5
1987-08-25 18:00:00 15.0 149.6 15.1 151.7 15.0 150.3
1987-08-26 00:00:00 14.8 150.3 15.2 151.2 14.8 150.3
1987-08-26 06:00:00 15.6 150.7 15.3 150.7 15.3 150.2
jtwc_wp hko hko td9636
1987-08-26 12:00:00 16.0 149.9 15.4 150.2 16.0 149.9
1987-08-26 18:00:00 16.1 149.1 15.5 149.2 16.2 149.2
1987-08-27 00:00:00 16.4 148.4 15.9 148.3 16.4 148.4
1987-08-27 06:00:00 17.2 147.7 16.4 147.4 17.1 147.6
1987-08-27 12:00:00 17.8 146.8 16.8 146.5 17.8 146.8
1987-08-27 18:00:00 18.2 145.9 18.2 145.9
1987-08-28 00:00:00 18.4 145.2 18.4 145.2
1987-08-28 06:00:00 18.6 144.8 18.5 144.7
1987-08-28 12:00:00 18.6 144.4 18.6 144.4
1987-08-28 18:00:00 18.6 144.0 18.6 144.0

top of pageTrack Data:Intensity

jtwc_wp hko hko td9636
Date Wind Pres Wind Pres Wind Pres Wind Pres
1987-08-20 06:00:00 15. 15.
1987-08-20 12:00:00 15. 15.
1987-08-20 18:00:00 15. 15.
1987-08-21 00:00:00 20. 20.
1987-08-21 06:00:00 20. 20.
1987-08-21 12:00:00 20. 25. 1004. 20.
1987-08-21 18:00:00 25. 25. 1004. 20.
1987-08-22 00:00:00 25. 25. 1004. 25.
1987-08-22 06:00:00 25. 25. 1004. 25.
1987-08-22 12:00:00 30. 25. 1004. 30.
1987-08-22 18:00:00 30. 25. 1004. 30.
1987-08-23 00:00:00 30. 25. 1004. 30.
1987-08-23 06:00:00 25. 30.
1987-08-23 12:00:00 25. 25.
1987-08-23 18:00:00 20. 25.
1987-08-24 00:00:00 20. 20.
1987-08-24 06:00:00 25. 20.
1987-08-24 12:00:00 25. 25. 1006. 25.
1987-08-24 18:00:00 25. 25. 1006. 25.
1987-08-25 00:00:00 25. 25. 1006. 25.
1987-08-25 06:00:00 25. 25. 1006. 25.
1987-08-25 12:00:00 25. 25. 1006. 25.
1987-08-25 18:00:00 25. 25. 1006. 25.
1987-08-26 00:00:00 25. 25. 1006. 25.
1987-08-26 06:00:00 30. 25. 1006. 25.
jtwc_wp hko hko td9636
1987-08-26 12:00:00 30. 25. 1006. 30.
1987-08-26 18:00:00 35. 30. 1004. 30.
1987-08-27 00:00:00 35. 30. 1004. 35.
1987-08-27 06:00:00 30. 25. 1006. 35.
1987-08-27 12:00:00 30. 25. 1006. 30.
1987-08-27 18:00:00 30. 30.
1987-08-28 00:00:00 25. 25.
1987-08-28 06:00:00 25. 25.
1987-08-28 12:00:00 25. 25.
1987-08-28 18:00:00 20. 20.

top of page Links to source data

Source Source file Format
jtwc_wp bwp121987.txt ATCF
hko tc-besttrack-data-current.txt:Line=18831:ED(1) HKO Text table
hko tc-besttrack-data-current.txt:Line=18838:ED(2) HKO Text table
td9636 cons_worldwide_trop_cyclone_18710101-19891231-003:Line=30980 TD 9636